createdAt,value
2019-01-17T00:00:35.042Z,43.63
2019-01-17T00:03:23.834Z,40.83
2019-01-17T00:06:14.032Z,30.33
2019-01-17T00:08:46.130Z,36.73
2019-01-17T00:11:18.270Z,28.93
2019-01-17T00:14:05.735Z,29.20
2019-01-17T00:16:47.071Z,25.63
2019-01-17T00:19:37.536Z,27.87
2019-01-17T00:22:21.828Z,24.87
2019-01-17T00:25:03.069Z,29.67
2019-01-17T00:27:35.166Z,31.30
2019-01-17T00:30:12.364Z,33.03
2019-01-17T00:33:00.497Z,40.23
2019-01-17T00:35:41.413Z,48.80
2019-01-17T00:38:23.591Z,48.57
2019-01-17T00:41:07.578Z,40.70
2019-01-17T00:43:54.489Z,30.80
2019-01-17T00:46:35.387Z,34.67
2019-01-17T00:49:23.763Z,28.97
2019-01-17T00:52:01.671Z,31.17
2019-01-17T00:54:42.904Z,36.20
2019-01-17T00:57:22.138Z,27.53
2019-01-17T01:00:02.955Z,27.67
2019-01-17T01:02:41.671Z,29.27
2019-01-17T01:05:14.569Z,25.30
2019-01-17T01:07:58.500Z,30.27
2019-01-17T01:10:30.601Z,28.83
2019-01-17T01:13:18.909Z,28.23
2019-01-17T01:15:56.550Z,30.93
2019-01-17T01:18:28.713Z,35.53
2019-01-17T01:21:04.047Z,38.20
2019-01-17T01:23:46.501Z,34.90
2019-01-17T01:26:30.597Z,34.80
2019-01-17T01:29:09.890Z,34.70
2019-01-17T01:31:47.904Z,32.60
2019-01-17T01:34:22.717Z,32.27
2019-01-17T01:37:09.855Z,35.07
2019-01-17T01:39:58.277Z,35.20
2019-01-17T01:42:31.262Z,33.47
2019-01-17T01:45:09.171Z,35.83
2019-01-17T01:47:41.292Z,39.13
2019-01-17T01:50:13.466Z,34.60
2019-01-17T01:52:45.579Z,42.87
2019-01-17T01:55:16.116Z,39.90
2019-01-17T01:57:46.629Z,38.00
2019-01-17T02:00:17.219Z,33.87
2019-01-17T02:02:47.713Z,31.67
2019-01-17T02:05:18.165Z,35.87
2019-01-17T02:07:48.653Z,37.53
2019-01-17T02:10:19.177Z,34.80
2019-01-17T02:12:49.675Z,30.97
2019-01-17T02:15:20.190Z,31.80
2019-01-17T02:17:50.812Z,37.77
2019-01-17T02:20:21.397Z,40.67
2019-01-17T02:22:51.909Z,37.83
2019-01-17T02:25:22.467Z,38.23
2019-01-17T02:27:53.016Z,37.67
2019-01-17T02:30:23.564Z,40.17
2019-01-17T02:32:54.120Z,47.70
2019-01-17T02:35:24.622Z,40.97
2019-01-17T02:37:55.247Z,45.20
2019-01-17T02:40:25.705Z,40.90
2019-01-17T02:42:56.295Z,39.53
2019-01-17T02:45:26.827Z,39.97
2019-01-17T02:47:57.310Z,40.40
2019-01-17T02:50:27.840Z,35.30
2019-01-17T02:52:58.328Z,35.43
2019-01-17T02:55:28.894Z,32.33
2019-01-17T02:57:59.420Z,31.00
2019-01-17T03:00:29.981Z,30.50
2019-01-17T03:03:00.446Z,32.10
2019-01-17T03:05:30.927Z,29.30
2019-01-17T03:08:01.391Z,30.97
2019-01-17T03:10:31.949Z,34.73
2019-01-17T03:13:02.412Z,36.50
2019-01-17T03:15:32.974Z,32.40
2019-01-17T03:18:03.438Z,28.87
2019-01-17T03:20:33.991Z,32.00
2019-01-17T03:23:04.840Z,27.77
2019-01-17T03:25:35.304Z,34.03
2019-01-17T03:28:06.013Z,33.10
2019-01-17T03:30:36.472Z,29.17
2019-01-17T03:33:07.109Z,30.60
2019-01-17T03:35:37.576Z,30.93
2019-01-17T03:38:08.059Z,28.27
2019-01-17T03:40:38.618Z,28.87
2019-01-17T03:43:09.180Z,27.73
2019-01-17T03:45:40.695Z,25.03
2019-01-17T03:48:11.188Z,27.03
2019-01-17T03:50:41.676Z,29.73
2019-01-17T03:53:12.157Z,25.87
2019-01-17T03:55:42.894Z,31.37
2019-01-17T03:58:13.558Z,28.43
2019-01-17T04:00:44.025Z,23.90
2019-01-17T04:03:14.541Z,29.80
2019-01-17T04:05:45.012Z,32.20
2019-01-17T04:08:15.562Z,30.70
2019-01-17T04:10:46.028Z,39.80
2019-01-17T04:13:17.661Z,31.80
2019-01-17T04:15:48.122Z,34.00
2019-01-17T04:18:18.621Z,42.57
2019-01-17T04:20:49.320Z,33.07
2019-01-17T04:23:19.816Z,31.37
2019-01-17T04:25:50.397Z,31.10
2019-01-17T04:28:20.875Z,27.40
2019-01-17T04:30:51.360Z,33.93
2019-01-17T04:33:21.827Z,29.00
2019-01-17T04:35:52.317Z,33.87
2019-01-17T04:38:22.811Z,33.70
2019-01-17T04:40:53.269Z,39.50
2019-01-17T04:43:23.726Z,35.60
2019-01-17T04:45:54.228Z,37.40
2019-01-17T04:48:24.673Z,33.70
2019-01-17T04:50:55.173Z,36.57
2019-01-17T04:53:25.678Z,38.30
2019-01-17T04:55:56.160Z,34.37
2019-01-17T04:58:26.648Z,40.77
2019-01-17T05:00:57.116Z,35.33
2019-01-17T05:03:27.613Z,39.30
2019-01-17T05:05:58.070Z,44.33
2019-01-17T05:08:28.557Z,43.47
2019-01-17T05:10:59.028Z,41.83
2019-01-17T05:13:29.522Z,36.17
2019-01-17T05:16:00.007Z,40.23
2019-01-17T05:18:30.507Z,36.80
2019-01-17T05:21:00.963Z,84.57
2019-01-17T05:23:31.461Z,142.63
2019-01-17T05:26:01.926Z,104.43
2019-01-17T05:28:32.507Z,76.67
2019-01-17T05:31:03.043Z,53.60
2019-01-17T05:33:33.547Z,42.57
2019-01-17T05:36:04.670Z,42.93
2019-01-17T05:38:35.168Z,42.87
2019-01-17T05:41:05.659Z,49.87
2019-01-17T05:43:36.145Z,45.50
2019-01-17T05:46:06.604Z,44.30
2019-01-17T05:48:38.778Z,45.40
2019-01-17T05:51:09.269Z,47.07
2019-01-17T05:53:39.793Z,42.10
2019-01-17T05:56:10.298Z,52.17
2019-01-17T05:58:40.787Z,42.57
2019-01-17T06:01:11.243Z,46.87
2019-01-17T06:03:41.739Z,45.03
2019-01-17T06:06:12.211Z,41.00
2019-01-17T06:08:42.695Z,44.20
2019-01-17T06:11:13.146Z,41.63
2019-01-17T06:13:43.645Z,40.13
2019-01-17T06:16:14.133Z,42.63
2019-01-17T06:18:44.603Z,37.57
2019-01-17T06:21:15.089Z,41.90
2019-01-17T06:23:46.115Z,36.73
2019-01-17T06:26:16.787Z,39.60
2019-01-17T06:28:47.288Z,43.10
2019-01-17T06:31:17.809Z,45.60
2019-01-17T06:33:48.269Z,45.70
2019-01-17T06:36:18.768Z,42.83
2019-01-17T06:38:49.247Z,40.70
2019-01-17T06:41:19.737Z,42.03
2019-01-17T06:43:51.159Z,37.30
2019-01-17T06:46:21.919Z,44.53
2019-01-17T06:48:52.379Z,38.47
2019-01-17T06:51:23.006Z,40.13
2019-01-17T06:53:53.504Z,36.53
2019-01-17T06:56:23.984Z,43.20
2019-01-17T06:58:54.474Z,39.20
2019-01-17T07:01:24.940Z,38.50
2019-01-17T07:03:55.437Z,37.37
2019-01-17T07:06:25.994Z,32.57
2019-01-17T07:08:56.424Z,35.43
2019-01-17T07:11:26.942Z,33.13
2019-01-17T07:13:57.390Z,27.87
2019-01-17T07:16:27.925Z,38.00
2019-01-17T07:18:58.383Z,35.63
2019-01-17T07:21:28.892Z,28.20
2019-01-17T07:23:59.439Z,29.33
2019-01-17T07:26:29.937Z,30.57
2019-01-17T07:29:00.423Z,27.27
2019-01-17T07:31:30.936Z,30.53
2019-01-17T07:34:02.050Z,24.47
2019-01-17T07:36:32.567Z,28.77
2019-01-17T07:39:07.598Z,23.27
2019-01-17T07:41:38.125Z,19.10
2019-01-17T07:44:12.097Z,23.10
2019-01-17T07:46:42.602Z,25.70
2019-01-17T07:49:13.075Z,22.43
2019-01-17T07:51:43.561Z,27.50
2019-01-17T07:54:14.024Z,23.03
2019-01-17T07:56:44.536Z,21.37
2019-01-17T07:59:15.030Z,25.90
2019-01-17T08:01:45.542Z,20.53
2019-01-17T08:04:17.618Z,28.27
2019-01-17T08:06:48.082Z,39.90
2019-01-17T08:09:18.782Z,37.60
2019-01-17T08:11:51.133Z,44.63
2019-01-17T08:14:21.773Z,42.13
2019-01-17T08:16:52.234Z,44.90
2019-01-17T08:19:22.803Z,35.83
2019-01-17T08:21:53.278Z,35.20
2019-01-17T08:24:23.852Z,35.17
2019-01-17T08:26:54.348Z,38.27
2019-01-17T08:29:24.903Z,29.40
2019-01-17T08:31:55.401Z,33.63
2019-01-17T08:34:28.408Z,27.90
2019-01-17T08:36:58.129Z,26.23
2019-01-17T08:39:28.591Z,26.97
2019-01-17T08:41:59.215Z,27.63
2019-01-17T08:44:29.673Z,25.80
2019-01-17T08:47:00.182Z,23.70
2019-01-17T08:49:30.676Z,21.30
2019-01-17T08:52:02.717Z,21.30
2019-01-17T08:54:33.219Z,22.53
2019-01-17T08:57:03.852Z,25.03
2019-01-17T08:59:34.291Z,21.67
2019-01-17T09:02:04.933Z,25.90
2019-01-17T09:04:35.404Z,24.80
2019-01-17T09:07:06.007Z,55.60
2019-01-17T09:09:36.467Z,46.60
2019-01-17T09:12:06.976Z,38.90
2019-01-17T09:14:37.438Z,30.13
2019-01-17T09:17:07.967Z,26.40
2019-01-17T09:19:38.432Z,23.90
2019-01-17T09:22:09.003Z,22.73
2019-01-17T09:24:39.473Z,23.00
2019-01-17T09:27:09.999Z,22.33
2019-01-17T09:29:40.546Z,22.87
2019-01-17T09:32:11.256Z,23.87
2019-01-17T09:34:41.715Z,22.80
2019-01-17T09:37:12.227Z,19.27
2019-01-17T09:39:42.752Z,20.93
2019-01-17T09:42:13.261Z,25.40
2019-01-17T09:44:43.741Z,21.77
2019-01-17T09:47:14.233Z,24.90
2019-01-17T09:49:44.770Z,20.37
2019-01-17T09:52:15.268Z,26.87
2019-01-17T09:54:45.750Z,21.13
2019-01-17T09:57:16.207Z,22.80
2019-01-17T09:59:46.712Z,24.20
2019-01-17T10:02:17.173Z,21.63
2019-01-17T10:04:47.670Z,20.57
2019-01-17T10:07:18.135Z,23.60
2019-01-17T10:09:49.192Z,21.37
2019-01-17T10:12:19.696Z,20.20
2019-01-17T10:14:50.309Z,17.47
2019-01-17T10:17:25.512Z,24.77
2019-01-17T10:20:09.532Z,24.73
2019-01-17T10:23:07.324Z,26.60
2019-01-17T10:25:54.149Z,25.23
2019-01-17T10:28:50.260Z,27.73
2019-01-17T10:31:28.435Z,23.40
2019-01-17T10:34:15.560Z,25.40
2019-01-17T10:37:08.658Z,24.90
2019-01-17T10:40:16.804Z,25.33
2019-01-17T10:42:54.447Z,33.57
2019-01-17T10:45:56.108Z,30.80
2019-01-17T10:48:34.247Z,30.20
2019-01-17T10:51:20.880Z,27.47
2019-01-17T10:54:02.350Z,28.17
2019-01-17T10:57:16.902Z,30.67
2019-01-17T10:59:55.058Z,28.43
2019-01-17T11:02:52.817Z,27.07
2019-01-17T11:05:45.954Z,28.47
2019-01-17T11:08:59.786Z,25.13
2019-01-17T11:11:37.693Z,22.33
2019-01-17T11:14:18.800Z,27.17
2019-01-17T11:17:11.460Z,76.30
2019-01-17T11:20:10.687Z,151.20
2019-01-17T11:22:59.990Z,47.60
2019-01-17T11:25:49.405Z,26.23
2019-01-17T11:28:45.676Z,29.50
2019-01-17T11:31:38.477Z,34.80
2019-01-17T11:34:16.431Z,35.37
2019-01-17T11:37:20.156Z,32.40
2019-01-17T11:40:14.883Z,27.37
2019-01-17T11:43:16.989Z,29.07
2019-01-17T11:46:16.305Z,29.73
2019-01-17T11:49:00.258Z,29.30
2019-01-17T11:51:56.401Z,29.20
2019-01-17T11:54:57.721Z,74.00
2019-01-17T11:57:38.731Z,34.60
2019-01-17T12:00:37.496Z,29.80
2019-01-17T12:03:33.576Z,24.37
2019-01-17T12:06:04.181Z,30.50
2019-01-17T12:08:34.732Z,29.80
2019-01-17T12:11:05.394Z,30.53
2019-01-17T12:13:35.926Z,29.30
2019-01-17T12:16:06.406Z,29.27
2019-01-17T12:18:36.927Z,33.37
2019-01-17T12:21:07.480Z,32.50
2019-01-17T12:23:37.998Z,31.83
2019-01-17T12:26:08.498Z,28.63
2019-01-17T12:28:39.013Z,36.20
2019-01-17T12:31:09.489Z,34.57
2019-01-17T12:33:40.007Z,32.00
2019-01-17T12:36:11.156Z,36.60
2019-01-17T12:38:41.679Z,28.73
2019-01-17T12:41:12.164Z,39.00
2019-01-17T12:43:42.775Z,39.27
2019-01-17T12:46:13.381Z,37.27
2019-01-17T12:48:43.870Z,35.40
2019-01-17T12:51:14.422Z,42.13
2019-01-17T12:53:45.430Z,35.57
2019-01-17T12:56:15.952Z,35.80
2019-01-17T12:58:46.442Z,35.83
2019-01-17T13:01:16.969Z,36.63
2019-01-17T13:03:47.490Z,36.43
2019-01-17T13:06:18.032Z,36.07
2019-01-17T13:08:48.543Z,36.57
2019-01-17T13:11:19.175Z,37.80
2019-01-17T13:13:49.676Z,42.13
2019-01-17T13:16:20.239Z,38.30
2019-01-17T13:18:50.792Z,40.07
2019-01-17T13:21:21.336Z,48.30
2019-01-17T13:23:51.856Z,46.20
2019-01-17T13:26:22.453Z,52.10
2019-01-17T13:28:52.974Z,48.57
2019-01-17T13:31:23.464Z,45.70
2019-01-17T13:33:53.977Z,43.60
2019-01-17T13:36:24.541Z,43.73
2019-01-17T13:38:55.064Z,51.10
2019-01-17T13:41:25.539Z,45.30
2019-01-17T13:43:56.066Z,45.87
2019-01-17T13:46:26.560Z,43.90
2019-01-17T13:48:59.426Z,46.03
2019-01-17T13:51:30.581Z,47.83
2019-01-17T13:54:01.171Z,47.10
2019-01-17T13:56:31.805Z,52.13
2019-01-17T13:59:02.474Z,53.97
2019-01-17T14:01:33.062Z,58.90
2019-01-17T14:04:03.581Z,50.97
2019-01-17T14:06:34.090Z,51.47
2019-01-17T14:09:07.183Z,51.97
2019-01-17T14:11:37.725Z,52.13
2019-01-17T14:14:08.231Z,49.63
2019-01-17T14:16:38.742Z,53.77
2019-01-17T14:19:09.355Z,54.77
2019-01-17T14:21:41.396Z,48.50
2019-01-17T14:24:11.924Z,55.00
2019-01-17T14:26:42.419Z,51.27
2019-01-17T14:29:12.937Z,46.50
2019-01-17T14:31:44.292Z,51.33
2019-01-17T14:34:14.821Z,55.03
2019-01-17T14:36:45.332Z,58.40
2019-01-17T14:39:15.867Z,54.40
2019-01-17T14:41:46.373Z,53.80
2019-01-17T14:44:17.025Z,61.17
2019-01-17T14:46:47.505Z,56.40
2019-01-17T14:49:18.284Z,56.07
2019-01-17T14:51:50.108Z,57.30
2019-01-17T14:54:20.974Z,51.33
2019-01-17T14:56:51.428Z,51.10
2019-01-17T14:59:21.950Z,57.63
2019-01-17T15:01:52.414Z,49.20
2019-01-17T15:04:22.978Z,61.80
2019-01-17T15:06:53.438Z,60.27
2019-01-17T15:09:23.941Z,49.40
2019-01-17T15:11:54.412Z,47.67
2019-01-17T15:14:24.906Z,50.13
2019-01-17T15:16:55.363Z,54.07
2019-01-17T15:19:25.927Z,50.40
2019-01-17T15:21:56.382Z,50.07
2019-01-17T15:24:26.867Z,50.20
2019-01-17T15:26:57.326Z,54.67
2019-01-17T15:29:28.832Z,52.00
2019-01-17T15:31:59.407Z,45.27
2019-01-17T15:34:29.956Z,53.87
2019-01-17T15:37:00.486Z,49.10
2019-01-17T15:39:31.925Z,55.63
2019-01-17T15:42:02.431Z,52.23
2019-01-17T15:44:32.925Z,51.13
2019-01-17T15:47:03.556Z,51.60
2019-01-17T15:49:34.032Z,45.43
2019-01-17T15:52:04.662Z,46.43
2019-01-17T15:54:35.164Z,50.57
2019-01-17T15:57:05.783Z,47.07
2019-01-17T15:59:36.294Z,45.50
2019-01-17T16:02:08.244Z,97.77
2019-01-17T16:04:38.826Z,82.87
2019-01-17T16:07:09.322Z,68.10
2019-01-17T16:09:39.833Z,61.73
2019-01-17T16:12:10.295Z,52.13
2019-01-17T16:14:40.828Z,51.13
2019-01-17T16:17:11.298Z,52.10
2019-01-17T16:19:41.809Z,55.37
2019-01-17T16:22:12.284Z,60.97
2019-01-17T16:24:42.746Z,47.70
2019-01-17T16:27:13.256Z,62.90
2019-01-17T16:29:43.717Z,53.23
2019-01-17T16:32:14.334Z,50.60
2019-01-17T16:34:44.817Z,56.97
2019-01-17T16:37:15.377Z,55.23
2019-01-17T16:39:45.869Z,52.33
2019-01-17T16:42:16.406Z,47.37
2019-01-17T16:44:46.875Z,49.23
2019-01-17T16:47:17.461Z,45.10
2019-01-17T16:49:48.398Z,58.30
2019-01-17T16:52:18.919Z,49.40
2019-01-17T16:54:49.780Z,52.97
2019-01-17T16:57:20.287Z,44.27
2019-01-17T16:59:50.755Z,53.30
2019-01-17T17:02:21.264Z,57.77
2019-01-17T17:04:51.747Z,51.67
2019-01-17T17:07:22.205Z,62.13
2019-01-17T17:09:54.359Z,52.57
2019-01-17T17:12:24.807Z,60.63
2019-01-17T17:14:55.791Z,61.43
2019-01-17T17:17:26.270Z,62.63
2019-01-17T17:19:56.787Z,69.67
2019-01-17T17:22:27.248Z,68.17
2019-01-17T17:24:58.918Z,58.57
2019-01-17T17:27:29.393Z,50.33
2019-01-17T17:29:59.899Z,58.90
2019-01-17T17:32:30.406Z,48.93
2019-01-17T17:35:01.498Z,66.07
2019-01-17T17:37:32.034Z,55.37
2019-01-17T17:40:02.756Z,58.83
2019-01-17T17:42:34.041Z,54.60
2019-01-17T17:45:07.235Z,50.40
2019-01-17T17:47:37.735Z,51.90
2019-01-17T17:50:15.201Z,58.90
2019-01-17T17:52:45.814Z,58.20
2019-01-17T17:55:18.534Z,54.73
2019-01-17T17:57:49.053Z,49.90
2019-01-17T18:00:30.457Z,53.33
2019-01-17T18:03:02.112Z,55.50
2019-01-17T18:05:34.261Z,57.57
2019-01-17T18:08:04.859Z,58.10
2019-01-17T18:10:35.369Z,54.17
2019-01-17T18:13:05.853Z,53.00
2019-01-17T18:15:36.439Z,54.53
2019-01-17T18:18:07.114Z,54.03
2019-01-17T18:20:37.686Z,49.57
2019-01-17T18:23:08.143Z,55.33
2019-01-17T18:25:38.647Z,47.50
2019-01-17T18:28:09.155Z,60.23
2019-01-17T18:30:39.618Z,53.80
2019-01-17T18:33:10.196Z,54.63
2019-01-17T18:35:40.673Z,54.27
2019-01-17T18:38:13.118Z,52.67
2019-01-17T18:40:43.717Z,57.27
2019-01-17T18:43:14.309Z,55.47
2019-01-17T18:45:44.892Z,52.83
2019-01-17T18:48:15.367Z,51.00
2019-01-17T18:50:46.027Z,52.13
2019-01-17T18:53:16.562Z,56.70
2019-01-17T18:55:47.082Z,50.50
2019-01-17T18:58:17.583Z,48.87
2019-01-17T19:00:48.072Z,50.30
2019-01-17T19:03:18.553Z,64.57
2019-01-17T19:05:49.066Z,53.67
2019-01-17T19:08:19.562Z,47.27
2019-01-17T19:10:50.057Z,58.63
2019-01-17T19:13:20.562Z,53.30
2019-01-17T19:15:51.026Z,57.60
2019-01-17T19:18:21.601Z,58.83
2019-01-17T19:20:52.116Z,52.50
2019-01-17T19:23:22.615Z,51.20
2019-01-17T19:25:53.194Z,53.67
2019-01-17T19:28:23.670Z,53.17
2019-01-17T19:30:54.154Z,48.90
2019-01-17T19:33:24.643Z,56.07
2019-01-17T19:35:55.180Z,50.80
2019-01-17T19:38:25.658Z,67.13
2019-01-17T19:40:56.216Z,51.17
2019-01-17T19:43:26.745Z,50.93
2019-01-17T19:45:57.255Z,59.70
2019-01-17T19:48:27.721Z,63.57
2019-01-17T19:50:58.228Z,53.33
2019-01-17T19:53:28.695Z,52.30
2019-01-17T19:55:59.204Z,52.93
2019-01-17T19:58:31.333Z,48.90
2019-01-17T20:01:01.830Z,59.17
2019-01-17T20:03:32.400Z,45.07
2019-01-17T20:06:02.967Z,47.23
2019-01-17T20:08:33.496Z,56.03
2019-01-17T20:11:04.143Z,50.10
2019-01-17T20:13:34.630Z,52.20
2019-01-17T20:16:05.435Z,42.33
2019-01-17T20:18:35.892Z,53.40
2019-01-17T20:21:06.519Z,49.60
2019-01-17T20:23:37.051Z,55.40
2019-01-17T20:26:07.945Z,53.07
2019-01-17T20:28:38.409Z,50.07
2019-01-17T20:31:10.998Z,53.63
2019-01-17T20:33:41.450Z,51.00
2019-01-17T20:36:11.943Z,47.73
2019-01-17T20:38:42.458Z,48.60
2019-01-17T20:41:12.966Z,51.17
2019-01-17T20:43:43.459Z,44.60
2019-01-17T20:46:14.004Z,53.10
2019-01-17T20:48:44.493Z,49.63
2019-01-17T20:51:15.081Z,55.07
2019-01-17T20:53:45.579Z,46.63
2019-01-17T20:56:16.046Z,58.50
2019-01-17T20:58:46.543Z,54.43
2019-01-17T21:01:39.147Z,52.70
2019-01-17T21:04:09.865Z,52.83
2019-01-17T21:06:40.317Z,48.20
2019-01-17T21:09:12.538Z,55.17
2019-01-17T21:11:42.993Z,54.97
2019-01-17T21:14:13.486Z,50.60
2019-01-17T21:16:44.029Z,55.23
2019-01-17T21:19:14.517Z,48.87
2019-01-17T21:21:45.184Z,47.43
2019-01-17T21:24:15.707Z,53.20
2019-01-17T21:26:46.183Z,58.87
2019-01-17T21:29:16.679Z,50.30
2019-01-17T21:31:47.140Z,50.67
2019-01-17T21:34:17.626Z,53.57
2019-01-17T21:36:48.094Z,50.47
2019-01-17T21:39:18.585Z,55.23
2019-01-17T21:41:49.043Z,52.47
2019-01-17T21:44:19.562Z,60.37
2019-01-17T21:46:50.020Z,53.47
2019-01-17T21:49:20.504Z,54.10
2019-01-17T21:51:50.991Z,54.17
2019-01-17T21:54:21.458Z,55.07
2019-01-17T21:56:51.946Z,52.80
2019-01-17T21:59:22.414Z,328.10
2019-01-17T22:01:52.978Z,127.53
2019-01-17T22:04:23.539Z,89.37
2019-01-17T22:06:54.003Z,71.47
2019-01-17T22:09:24.495Z,63.97
2019-01-17T22:11:54.956Z,63.53
2019-01-17T22:14:25.451Z,69.33
2019-01-17T22:16:55.939Z,82.80
2019-01-17T22:19:26.388Z,81.27
2019-01-17T22:21:56.896Z,78.53
2019-01-17T22:24:27.429Z,63.50
2019-01-17T22:26:57.944Z,70.53
2019-01-17T22:29:28.399Z,63.97
2019-01-17T22:31:58.912Z,75.20
2019-01-17T22:34:29.348Z,77.00
2019-01-17T22:36:59.839Z,74.07
2019-01-17T22:39:30.911Z,72.40
2019-01-17T22:42:02.876Z,67.00
2019-01-17T22:44:33.355Z,58.90
2019-01-17T22:47:03.846Z,59.37
2019-01-17T22:49:34.407Z,51.20
2019-01-17T22:52:04.953Z,63.73
2019-01-17T22:54:35.419Z,62.00
2019-01-17T22:57:05.983Z,59.97
2019-01-17T22:59:36.445Z,56.83
2019-01-17T23:02:07.380Z,57.37
2019-01-17T23:10:15.062Z,53.30
2019-01-17T23:15:33.643Z,54.70
2019-01-17T23:18:04.159Z,49.93
2019-01-17T23:20:34.676Z,58.73
2019-01-17T23:23:05.309Z,52.43
2019-01-17T23:25:36.196Z,52.43
2019-01-17T23:28:06.743Z,61.37
2019-01-17T23:30:37.343Z,50.20
2019-01-17T23:33:07.973Z,53.40
2019-01-17T23:35:38.491Z,57.53
2019-01-17T23:38:08.982Z,57.77
2019-01-17T23:40:39.494Z,50.40
2019-01-17T23:43:09.984Z,51.63
2019-01-17T23:45:40.502Z,61.20
2019-01-17T23:48:10.991Z,54.77
2019-01-17T23:50:41.494Z,53.50
2019-01-17T23:53:11.980Z,57.93
2019-01-17T23:55:42.487Z,53.27
2019-01-17T23:58:13.022Z,57.13
